Latest Weather Observations for Munglinup West

IDW60801

Issued at 5:33 pm WST Monday 23 October 2017 (issued every 30 minutes, with the page automatically refreshed every 10 minutes)

About weather observations | Map of weather stations | Latest weather observations for WA | Other Formats
Station Details ID: 012044 Name: MUNGLINUP WEST Lat: -33.55 Lon: 120.70 Height: 220.0 m
Data from the previous 72 hours. | See also: Recent months at Munglinup West
Date/Time
WST
Temp
°C
App
Temp
°C
Dew
Point
°C
Rel
Hum
%
Delta-T
°C
Wind Press
QNH
hPa
Press
MSL
hPa
Rain since
9am
mm
Dir  Spd
km/h
Gust
km/h
Spd
kts
Gust
kts
23/05:30pm 16.6 15.9 16.4 99 0.1 S 15 22 8 12 1015.0 1014.6 0.0
23/05:00pm 18.1 17.3 17.0 93 0.7 S 17 24 9 13 1014.4 1014.1 0.0
23/04:30pm 19.3 18.2 17.4 89 1.2 S 19 24 10 13 1014.1 1013.7 0.0
23/04:00pm 20.5 20.3 17.5 83 1.9 S 15 24 8 13 1013.8 1013.4 0.0
23/03:30pm 20.9 20.7 17.5 81 2.1 S 15 20 8 11 1013.5 1013.1 0.0
23/03:00pm 21.5 21.6 18.3 82 2.0 S 15 22 8 12 1013.1 1012.7 0.0
23/02:30pm 21.5 21.6 18.3 82 2.0 S 15 22 8 12 1013.4 1013.0 0.0
23/02:00pm 21.0 20.8 18.6 86 1.5 SSW 17 26 9 14 1013.3 1012.9 0.0
23/01:30pm 22.6 22.3 19.6 83 1.9 SW 20 30 11 16 1013.4 1013.0 0.0
23/01:00pm 21.4 21.0 18.8 85 1.6 SSW 19 26 10 14 1013.2 1012.8 0.0
23/12:30pm 21.4 22.2 19.1 87 1.5 SW 13 20 7 11 1013.3 1012.9 0.0
23/12:00pm 20.1 20.6 18.4 90 1.1 SSW 13 20 7 11 1013.5 1013.1 0.0
23/11:30am 19.4 19.5 18.4 94 0.6 SW 15 22 8 12 1013.6 1013.2 0.0
23/11:00am 18.5 18.2 18.3 99 0.1 SW 17 22 9 12 1013.6 1013.2 0.0
23/10:30am 17.7 16.8 17.7 100 0.0 SW 19 24 10 13 1013.7 1013.3 0.0
23/10:00am 16.8 16.6 16.8 100 0.0 SW 13 20 7 11 1013.6 1013.2 0.0
23/09:30am 16.2 16.2 16.2 100 0.0 SW 11 17 6 9 1013.4 1013.0 0.0
23/09:00am 15.7 15.5 15.7 100 0.0 SW 11 17 6 9 1013.2 1012.8 11.0
23/08:30am 15.2 14.8 15.2 100 0.0 SW 11 17 6 9 1013.2 1012.8 11.0
23/08:00am 15.2 14.8 15.2 100 0.0 SSW 11 17 6 9 1013.0 1012.6 11.0
23/07:30am 15.0 14.2 15.0 100 0.0 SSW 13 19 7 10 1013.0 1012.6 11.0
23/07:00am 14.6 14.4 14.6 100 0.0 SW 9 13 5 7 1013.0 1012.6 11.0
23/06:30am 13.7 13.2 13.7 100 0.0 WSW 9 13 5 7 1012.8 1012.4 11.0
23/06:00am 12.7 11.5 12.7 100 0.0 SSW 11 15 6 8 1012.5 1012.1 11.0
23/05:30am 12.1 11.4 12.1 100 0.0 SW 7 7 4 4 1012.2 1011.8 11.0
23/05:00am 11.3 10.4 11.3 100 0.0 WSW 7 7 4 4 1012.0 1011.6 11.0
23/04:30am 11.9 11.4 11.9 100 0.0 W 6 6 3 3 1011.7 1011.3 10.8
23/04:00am 12.4 12.0 12.4 100 0.0 NW 6 7 3 4 1011.6 1011.2 10.8
23/03:30am 12.4 12.0 12.4 100 0.0 NNW 6 6 3 3 1011.5 1011.1 10.8
23/03:00am 12.3 11.7 12.3 100 0.0 NNW 7 7 4 4 1011.4 1011.0 10.8
23/02:30am 12.4 11.4 12.4 100 0.0 NNW 9 9 5 5 1011.5 1011.1 10.8
23/02:00am 12.4 11.8 12.4 100 0.0 NNW 7 9 4 5 1011.6 1011.2 10.8
23/01:30am 13.1 12.9 13.1 100 0.0 NW 6 6 3 3 1011.8 1011.4 10.8
23/01:00am 13.3 13.0 13.3 100 0.0 NNW 7 9 4 5 1011.8 1011.4 10.8
23/12:30am 13.7 13.5 13.7 100 0.0 NNW 7 9 4 5 1012.2 1011.8 10.8
23/12:00am 14.0 13.9 14.0 100 0.0 N 7 7 4 4 1012.6 1012.2 10.8
 
Date/Time
WST
Temp
°C
App
Temp
°C
Dew
Point
°C
Rel
Hum
%
Delta-T
°C
Wind Press
QNH
hPa
Press
MSL
hPa
Rain since
9am
mm
Dir  Spd
km/h
Gust
km/h
Spd
kts
Gust
kts
22/11:30pm 13.7 13.5 13.7 100 0.0 N 7 9 4 5 1012.8 1012.4 10.8
22/11:00pm 14.3 13.6 14.3 100 0.0 NNE 11 13 6 7 1013.0 1012.6 10.8
22/10:30pm 14.0 13.2 14.0 100 0.0 NNE 11 15 6 8 1013.1 1012.7 10.8
22/10:00pm 14.1 14.1 14.1 100 0.0 NNE 7 9 4 5 1013.4 1013.0 10.8
22/09:30pm 14.4 14.1 14.4 100 0.0 NE 9 13 5 7 1013.6 1013.2 10.8
22/09:00pm 14.7 14.5 14.7 100 0.0 NE 9 11 5 6 1013.9 1013.5 10.8
22/08:30pm 15.1 14.7 15.1 100 0.0 NE 11 13 6 7 1013.8 1013.4 10.8
22/08:00pm 15.5 15.6 15.5 100 0.0 NE 9 13 5 7 1013.8 1013.4 10.8
22/07:30pm 15.6 16.3 15.6 100 0.0 NE 6 7 3 4 1013.6 1013.2 10.8
22/07:00pm 15.9 16.5 15.9 100 0.0 NE 7 9 4 5 1013.2 1012.8 10.8
22/06:30pm 16.5 17.4 16.5 100 0.0 NE 7 9 4 5 1012.7 1012.3 10.8
22/06:00pm 18.4 20.5 18.2 99 0.1 NNE 4 9 2 5 1012.4 1012.0 10.8
22/05:30pm 19.2 20.9 18.4 95 0.5 N 7 11 4 6 1012.2 1011.8 10.8
22/05:00pm 19.7 20.3 18.7 94 0.6 N 13 17 7 9 1011.9 1011.5 10.8
22/04:30pm 19.3 18.6 18.6 96 0.4 NE 20 28 11 15 1011.7 1011.3 10.8
22/04:00pm 19.1 17.5 18.4 96 0.4 NE 24 32 13 17 1011.7 1011.3 10.8
22/03:30pm 18.9 17.5 18.7 99 0.1 NE 24 32 13 17 1011.8 1011.4 10.8
22/03:00pm 18.1 15.6 18.1 100 0.0 NE 28 37 15 20 1012.3 1011.9 10.8
22/02:30pm 17.4 15.0 17.4 100 0.0 NE 26 37 14 20 1012.3 1011.9 10.8
22/02:00pm 15.9 12.9 15.9 100 0.0 NE 26 37 14 20 1013.1 1012.7 10.8
22/01:30pm 15.9 13.3 15.9 100 0.0 ENE 24 32 13 17 1012.8 1012.4 10.8
22/01:00pm 15.1 11.8 15.1 100 0.0 ENE 26 37 14 20 1014.0 1013.6 10.4
22/12:30pm 14.8 12.7 14.8 100 0.0 ENE 19 26 10 14 1015.4 1015.0 10.0
22/12:00pm 14.9 14.4 14.9 100 0.0 NNE 11 15 6 8 1016.7 1016.3 8.0
22/11:30am 15.0 15.3 15.0 100 0.0 NE 7 13 4 7 1017.1 1016.7 4.8
22/11:26am 15.1 15.4 15.1 100 0.0 E 7 19 4 10 1017.0 1016.6 4.6
22/11:00am 15.5 14.1 15.5 100 0.0 E 17 26 9 14 1014.8 1014.5 0.6
22/10:30am 15.3 13.2 15.3 100 0.0 ESE 20 30 11 16 1015.3 1014.9 0.0
22/10:00am 17.1 15.7 17.1 100 0.0 E 20 28 11 15 1015.9 1015.5 0.0
22/09:30am 17.1 15.9 17.1 100 0.0 ESE 19 28 10 15 1016.4 1016.0 0.0
22/09:00am 14.4 13.3 14.4 100 0.0 E 13 17 7 9 1018.1 1017.7 11.0
22/08:41am 14.1 12.2 14.1 100 0.0 E 17 26 9 14 1017.4 1017.0 11.0
22/08:30am 14.1 13.7 14.1 100 0.0 E 9 13 5 7 1019.4 1019.1 10.6
22/08:00am 14.3 14.5 14.3 100 0.0 ENE 6 13 3 7 1019.8 1019.4 7.6
22/07:30am 14.3 14.9 14.3 100 0.0 NNE 4 7 2 4 1020.5 1020.1 5.8
22/07:00am 14.1 14.3 14.1 100 0.0 NNE 6 6 3 3 1020.6 1020.2 4.8
22/06:30am 13.9 14.8 13.9 100 0.0 NNW 2 4 1 2 1020.9 1020.5 3.4
22/06:00am 13.6 13.4 13.6 100 0.0 SE 7 11 4 6 1019.9 1019.5 2.8
22/05:30am 13.6 12.7 13.6 100 0.0 SSE 11 17 6 9 1019.4 1019.1 2.8
22/05:00am 13.9 12.7 13.9 100 0.0 SSW 13 17 7 9 1020.0 1019.6 2.8
22/04:30am 14.1 11.8 14.1 100 0.0 SW 19 26 10 14 1020.6 1020.2 1.6
22/04:00am 14.4 14.5 14.4 100 0.0 SW 7 13 4 7 1019.3 1019.0 0.0
22/03:30am 14.8 16.4 14.8 100 0.0 CALM 0 0 0 0 1018.3 1018.0 0.0
22/03:00am 15.2 14.0 15.0 99 0.1 ENE 15 19 8 10 1018.1 1017.7 0.0
22/02:30am 15.5 14.4 15.3 99 0.1 ENE 15 20 8 11 1017.9 1017.5 0.0
22/02:00am 16.6 15.0 15.1 91 0.9 ENE 17 22 9 12 1018.2 1017.8 0.0
22/01:30am 16.3 14.8 15.3 94 0.6 ENE 17 22 9 12 1018.2 1017.8 0.0
22/01:00am 16.8 14.9 15.2 90 0.9 ENE 19 24 10 13 1018.2 1017.8 0.0
22/12:30am 16.7 14.6 15.1 90 0.9 ENE 20 26 11 14 1018.4 1018.1 0.0
22/12:00am 16.8 15.3 15.3 91 0.9 ENE 17 22 9 12 1019.2 1018.9 0.0
 
Date/Time
WST
Temp
°C
App
Temp
°C
Dew
Point
°C
Rel
Hum
%
Delta-T
°C
Wind Press
QNH
hPa
Press
MSL
hPa
Rain since
9am
mm
Dir  Spd
km/h
Gust
km/h
Spd
kts
Gust
kts
21/11:30pm 16.3 14.3 15.5 95 0.5 E 20 28 11 15 1019.2 1018.9 0.0
21/11:00pm 15.8 14.0 15.6 99 0.1 E 19 24 10 13 1019.5 1019.2 0.0
21/10:30pm 16.2 14.9 15.9 98 0.2 E 17 22 9 12 1020.3 1019.9 0.0
21/10:00pm 16.2 14.6 15.9 98 0.2 E 19 26 10 14 1020.4 1020.0 0.0
21/09:30pm 16.3 14.4 15.8 97 0.3 E 20 28 11 15 1020.6 1020.2 0.0
21/09:00pm 16.3 14.5 16.1 99 0.1 E 20 28 11 15 1021.1 1020.7 0.0
21/08:30pm 16.4 14.7 16.2 99 0.1 E 20 30 11 16 1021.5 1021.1 0.0
21/08:00pm 16.4 14.7 16.2 99 0.1 ESE 20 30 11 16 1021.8 1021.4 0.0
21/07:30pm 16.7 15.1 16.5 99 0.1 ESE 20 28 11 15 1021.9 1021.5 0.0
21/07:00pm 17.0 15.6 16.5 97 0.3 ESE 19 24 10 13 1022.2 1021.9 0.0
21/06:30pm 17.6 15.9 16.3 92 0.8 ESE 20 26 11 14 1021.8 1021.4 0.0
21/06:00pm 18.2 16.1 16.2 88 1.2 ESE 22 30 12 16 1021.2 1020.8 0.0
21/05:30pm 19.2 17.6 16.4 84 1.7 SE 20 28 11 15 1021.3 1020.9 0.0
21/05:00pm 20.4 18.2 16.0 76 2.7 SE 22 30 12 16 1021.1 1020.7 0.0
21/04:30pm 23.2 21.1 17.2 69 3.7 ESE 24 37 13 20 1020.8 1020.4 0.0
21/04:00pm 23.4 20.4 16.9 67 4.0 SE 28 44 15 24 1021.1 1020.7 0.0
21/03:30pm 24.0 21.1 17.0 65 4.4 SE 28 37 15 20 1021.4 1021.0 0.0
21/03:00pm 25.4 23.7 17.3 61 5.1 ESE 22 33 12 18 1021.7 1021.3 0.0
21/02:30pm 27.4 26.3 15.4 48 7.4 ENE 15 22 8 12 1022.0 1021.6 0.0
21/02:00pm 27.6 26.6 15.6 48 7.4 NE 15 24 8 13 1022.5 1022.2 0.0
21/01:30pm 27.7 27.0 15.4 47 7.6 NNE 13 22 7 12 1023.1 1022.8 0.0
21/01:00pm 28.2 27.8 16.1 47 7.5 ENE 13 26 7 14 1023.3 1023.0 0.0
21/12:30pm 27.1 26.2 15.8 50 7.0 E 15 30 8 16 1023.8 1023.5 0.0
21/12:00pm 27.1 26.1 16.7 53 6.5 E 17 28 9 15 1023.6 1023.3 0.0
21/11:30am 25.8 24.3 16.4 56 5.8 ENE 19 32 10 17 1024.0 1023.7 0.0
21/11:00am 24.4 22.4 15.6 58 5.3 ENE 20 32 11 17 1024.8 1024.4 0.0
21/10:30am 24.0 22.3 16.3 62 4.7 ENE 20 32 11 17 1025.4 1025.0 0.0
21/10:00am 22.7 20.9 16.0 66 4.1 ENE 20 30 11 16 1025.8 1025.4 0.0
21/09:30am 20.8 18.3 15.1 70 3.4 ENE 22 32 12 17 1026.4 1026.1 0.0
21/09:00am 19.2 15.9 14.9 76 2.5 NE 26 35 14 19 1026.1 1025.8 0.0
21/08:30am 18.0 15.0 14.7 81 1.9 NE 24 35 13 19 1026.2 1025.9 0.0
21/08:00am 17.0 13.5 14.5 85 1.4 NE 26 35 14 19 1026.2 1025.9 0.0
21/07:30am 15.2 11.2 14.1 93 0.6 NE 28 39 15 21 1026.5 1026.2 0.0
21/07:00am 13.5 9.2 13.3 99 0.1 NE 28 41 15 22 1026.6 1026.3 0.0
21/06:30am 12.0 8.1 12.0 100 0.0 NE 24 37 13 20 1026.6 1026.3 0.0
21/06:00am 10.7 6.8 10.7 100 0.0 NE 22 35 12 19 1026.6 1026.3 0.0
21/05:30am 10.0 5.5 10.0 100 0.0 NE 24 32 13 17 1026.6 1026.3 0.0
21/05:00am 9.5 5.2 9.5 100 0.0 NE 22 30 12 16 1026.6 1026.3 0.0
21/04:30am 9.4 5.1 9.4 100 0.0 NE 22 28 12 15 1026.4 1026.1 0.0
21/04:00am 8.9 4.9 8.9 100 0.0 NE 20 32 11 17 1026.3 1026.0 0.0
21/03:30am 8.8 4.7 8.8 100 0.0 ENE 20 30 11 16 1026.3 1026.0 0.0
21/03:00am 9.2 5.2 9.2 100 0.0 ENE 20 26 11 14 1026.2 1025.9 0.0
21/02:30am 9.7 5.5 9.7 100 0.0 ENE 22 32 12 17 1026.5 1026.2 0.0
21/02:00am 10.1 6.0 10.1 100 0.0 ENE 22 33 12 18 1026.7 1026.4 0.0
21/01:30am 10.3 5.9 10.3 100 0.0 ENE 24 32 13 17 1027.1 1026.8 0.0
21/01:00am 10.6 6.3 10.6 100 0.0 ENE 24 32 13 17 1027.2 1026.9 0.0
21/12:30am 10.2 6.1 10.2 100 0.0 ENE 22 30 12 16 1027.2 1026.9 0.0
21/12:00am 10.4 6.4 10.4 100 0.0 ENE 22 28 12 15 1027.4 1027.1 0.0
 
Date/Time
WST
Temp
°C
App
Temp
°C
Dew
Point
°C
Rel
Hum
%
Delta-T
°C
Wind Press
QNH
hPa
Press
MSL
hPa
Rain since
9am
mm
Dir  Spd
km/h
Gust
km/h
Spd
kts
Gust
kts
20/11:30pm 10.9 6.6 10.9 100 0.0 ENE 24 32 13 17 1027.6 1027.3 0.0
20/11:00pm 11.4 7.7 11.4 100 0.0 ENE 22 30 12 16 1027.7 1027.4 0.0
20/10:30pm 11.8 8.2 11.8 100 0.0 E 22 30 12 16 1027.7 1027.4 0.0
20/10:00pm 12.2 8.3 12.2 100 0.0 E 24 33 13 18 1027.7 1027.4 0.0
20/09:30pm 12.4 8.6 12.4 100 0.0 E 24 33 13 18 1027.6 1027.3 0.0
20/09:00pm 12.5 8.7 12.5 100 0.0 E 24 32 13 17 1027.6 1027.3 0.0
20/08:30pm 12.7 9.0 12.7 100 0.0 ESE 24 33 13 18 1027.9 1027.6 0.0
20/08:00pm 13.1 9.5 13.1 100 0.0 ESE 24 33 13 18 1027.8 1027.5 0.0
20/07:30pm 13.3 9.8 13.3 100 0.0 ESE 24 33 13 18 1027.7 1027.4 0.0
20/07:00pm 13.6 10.2 13.6 100 0.0 ESE 24 33 13 18 1027.4 1027.1 0.0
20/06:30pm 14.2 11.0 14.2 100 0.0 ESE 24 33 13 18 1027.3 1027.0 0.0
20/06:00pm 15.3 11.6 15.1 99 0.1 SE 28 43 15 23 1027.0 1026.7 0.0

Other Formats:

Comma delimited format used in spreadsheet applications
http://www.bom.gov.au/fwo/IDW60801/IDW60801.95644.axf

JavaScript Object Notation format (JSON) in row-major order
http://www.bom.gov.au/fwo/IDW60801/IDW60801.95644.json